createdAt,value
2022-08-05T00:00:46.348Z,23.05
2022-08-05T00:03:20.276Z,22.89
2022-08-05T00:06:04.777Z,22.92
2022-08-05T00:08:38.761Z,22.44
2022-08-05T00:11:20.612Z,22.90
2022-08-05T00:13:58.683Z,22.88
2022-08-05T00:16:36.077Z,22.49
2022-08-05T00:19:16.338Z,22.46
2022-08-05T00:21:51.877Z,22.13
2022-08-05T00:24:24.544Z,22.56
2022-08-05T00:26:55.131Z,21.38
2022-08-05T00:29:25.805Z,22.40
2022-08-05T00:32:12.467Z,22.57
2022-08-05T00:35:05.124Z,22.20
2022-08-05T00:37:51.254Z,22.41
2022-08-05T00:40:26.904Z,22.24
2022-08-05T00:42:56.410Z,22.10
2022-08-05T00:45:38.765Z,21.61
2022-08-05T00:48:13.568Z,22.23
2022-08-05T00:50:45.854Z,22.09
2022-08-05T00:53:44.893Z,22.02
2022-08-05T00:56:04.261Z,22.07
2022-08-05T00:58:32.266Z,22.08
2022-08-05T01:01:00.641Z,22.09
2022-08-05T01:03:30.871Z,22.32
2022-08-05T01:06:01.461Z,22.21
2022-08-05T01:08:42.800Z,22.09
2022-08-05T01:11:22.380Z,22.00
2022-08-05T01:14:09.006Z,22.06
2022-08-05T01:16:45.224Z,22.06
2022-08-05T01:19:46.378Z,21.55
2022-08-05T01:22:27.971Z,22.46
2022-08-05T01:25:09.839Z,22.25
2022-08-05T01:27:55.526Z,22.25
2022-08-05T01:30:34.290Z,22.24
2022-08-05T01:33:08.366Z,22.19
2022-08-05T01:35:51.294Z,22.11
2022-08-05T01:38:27.156Z,21.92
2022-08-05T01:40:59.889Z,22.27
2022-08-05T01:43:33.941Z,22.16
2022-08-05T01:46:07.135Z,22.28
2022-08-05T01:48:49.544Z,21.70
2022-08-05T01:51:20.083Z,22.04
2022-08-05T01:53:57.958Z,21.08
2022-08-05T01:58:11.161Z,21.93
2022-08-05T01:59:23.949Z,21.91
2022-08-05T02:01:57.938Z,21.57
2022-08-05T02:04:29.943Z,21.07
2022-08-05T02:06:59.941Z,21.36
2022-08-05T02:09:32.090Z,21.24
2022-08-05T02:12:06.112Z,20.89
2022-08-05T02:14:47.105Z,21.12
2022-08-05T02:18:27.458Z,20.87
2022-08-05T02:20:22.182Z,21.04
2022-08-05T02:22:57.285Z,21.04
2022-08-05T02:25:33.129Z,21.06
2022-08-05T02:28:08.985Z,20.94
2022-08-05T02:30:54.344Z,20.72
2022-08-05T02:33:38.232Z,20.89
2022-08-05T02:36:10.128Z,20.87
2022-08-05T02:38:53.405Z,20.02
2022-08-05T02:41:23.256Z,21.00
2022-08-05T02:44:05.915Z,21.01
2022-08-05T02:46:58.540Z,20.88
2022-08-05T02:49:36.936Z,20.83
2022-08-05T02:52:09.277Z,20.50
2022-08-05T02:54:41.336Z,20.50
2022-08-05T02:58:11.378Z,20.58
2022-08-05T03:00:01.615Z,20.65
2022-08-05T03:02:37.068Z,20.71
2022-08-05T03:05:09.089Z,20.62
2022-08-05T03:08:01.183Z,20.57
2022-08-05T03:10:29.116Z,20.45
2022-08-05T03:15:24.566Z,20.84
2022-08-05T03:17:57.561Z,20.74
2022-08-05T03:20:26.398Z,20.66
2022-08-05T03:22:57.660Z,20.53
2022-08-05T03:25:32.684Z,20.72
2022-08-05T03:28:18.826Z,20.72
2022-08-05T03:30:49.717Z,20.62
2022-08-05T03:33:21.094Z,19.94
2022-08-05T03:35:50.430Z,20.43
2022-08-05T03:38:23.849Z,20.49
2022-08-05T03:41:08.202Z,20.27
2022-08-05T03:44:08.699Z,20.20
2022-08-05T03:46:29.721Z,20.17
2022-08-05T03:49:02.018Z,20.22
2022-08-05T03:52:37.864Z,20.30
2022-08-05T03:55:54.207Z,20.31
2022-08-05T03:57:42.337Z,20.27
2022-08-05T04:00:15.580Z,20.23
2022-08-05T04:02:58.774Z,20.28
2022-08-05T04:05:34.045Z,20.30
2022-08-05T04:08:05.691Z,19.27
2022-08-05T04:10:43.534Z,20.29
2022-08-05T04:13:11.591Z,19.22
2022-08-05T04:15:52.647Z,20.08
2022-08-05T04:18:25.519Z,19.97
2022-08-05T04:20:59.592Z,19.94
2022-08-05T04:24:05.305Z,19.95
2022-08-05T04:26:18.642Z,20.11
2022-08-05T04:28:51.171Z,19.63
2022-08-05T04:31:20.662Z,19.87
2022-08-05T04:34:18.479Z,20.15
2022-08-05T04:36:45.812Z,20.24
2022-08-05T04:39:17.652Z,20.25
2022-08-05T04:41:46.334Z,20.31
2022-08-05T04:44:16.238Z,20.37
2022-08-05T04:46:57.188Z,20.31
2022-08-05T04:49:38.400Z,20.54
2022-08-05T04:52:09.017Z,20.52
2022-08-05T04:54:36.972Z,20.61
2022-08-05T04:57:05.305Z,20.49
2022-08-05T04:59:38.941Z,20.53
2022-08-05T05:02:37.540Z,20.49
2022-08-05T05:05:01.920Z,20.55
2022-08-05T05:07:35.575Z,20.40
2022-08-05T05:10:06.528Z,20.58
2022-08-05T05:12:36.690Z,20.53
2022-08-05T05:15:05.312Z,20.70
2022-08-05T05:17:55.480Z,20.66
2022-08-05T05:20:28.479Z,20.50
2022-08-05T05:22:58.595Z,19.89
2022-08-05T05:25:40.233Z,19.83
2022-08-05T05:28:08.805Z,20.22
2022-08-05T05:30:37.878Z,20.24
2022-08-05T05:33:16.227Z,20.23
2022-08-05T05:35:47.497Z,20.04
2022-08-05T05:38:22.521Z,20.04
2022-08-05T05:40:56.317Z,19.89
2022-08-05T05:43:54.371Z,19.61
2022-08-05T05:46:17.638Z,18.94
2022-08-05T05:48:48.872Z,18.82
2022-08-05T05:51:24.232Z,19.06
2022-08-05T05:53:59.583Z,19.07
2022-08-05T05:56:31.621Z,18.96
2022-08-05T05:59:03.590Z,19.09
2022-08-05T06:01:37.783Z,19.03
2022-08-05T06:04:11.753Z,19.19
2022-08-05T06:06:42.414Z,19.28
2022-08-05T06:09:17.044Z,19.31
2022-08-05T06:12:01.161Z,19.33
2022-08-05T06:14:30.259Z,19.36
2022-08-05T06:16:58.702Z,19.49
2022-08-05T06:19:35.285Z,19.18
2022-08-05T06:22:03.958Z,19.28
2022-08-05T06:24:33.668Z,19.42
2022-08-05T06:27:04.118Z,19.53
2022-08-05T06:29:49.601Z,19.58
2022-08-05T06:32:25.917Z,19.67
2022-08-05T06:34:57.966Z,19.74
2022-08-05T06:37:57.665Z,19.71
2022-08-05T06:40:18.539Z,19.66
2022-08-05T06:42:52.011Z,19.82
2022-08-05T06:45:44.107Z,19.66
2022-08-05T06:48:47.377Z,19.94
2022-08-05T06:50:58.611Z,19.95
2022-08-05T06:53:29.311Z,20.08
2022-08-05T06:56:00.679Z,19.73
2022-08-05T06:58:35.448Z,19.60
2022-08-05T07:01:07.149Z,19.55
2022-08-05T07:03:35.681Z,19.64
2022-08-05T07:06:05.980Z,19.82
2022-08-05T07:08:42.701Z,19.37
2022-08-05T07:11:15.217Z,19.32
2022-08-05T07:14:01.382Z,19.50
2022-08-05T07:17:59.396Z,19.99
2022-08-05T07:20:23.141Z,20.11
2022-08-05T07:22:28.875Z,20.04
2022-08-05T07:25:24.079Z,20.00
2022-08-05T07:27:56.520Z,19.50
2022-08-05T07:30:32.723Z,19.97
2022-08-05T07:33:01.933Z,20.07
2022-08-05T07:36:03.943Z,19.71
2022-08-05T07:38:32.581Z,19.85
2022-08-05T07:42:08.166Z,19.88
2022-08-05T07:43:58.919Z,19.65
2022-08-05T07:46:28.191Z,20.00
2022-08-05T07:49:03.875Z,19.78
2022-08-05T07:51:48.921Z,19.82
2022-08-05T07:54:30.195Z,19.91
2022-08-05T07:57:41.801Z,20.09
2022-08-05T07:59:49.682Z,20.16
2022-08-05T08:02:18.326Z,20.40
2022-08-05T08:04:48.625Z,20.52
2022-08-05T08:07:17.929Z,20.61
2022-08-05T08:09:46.327Z,20.76
2022-08-05T08:12:33.376Z,20.87
2022-08-05T08:15:13.913Z,20.89
2022-08-05T08:17:46.332Z,20.80
2022-08-05T08:20:59.908Z,20.96
2022-08-05T08:23:59.985Z,21.03
2022-08-05T08:26:00.578Z,21.01
2022-08-05T08:28:36.223Z,20.98
2022-08-05T08:31:07.348Z,21.11
2022-08-05T08:33:38.312Z,21.07
2022-08-05T08:36:39.213Z,21.02
2022-08-05T08:38:56.766Z,20.78
2022-08-05T08:41:52.446Z,20.88
2022-08-05T08:45:19.858Z,20.82
2022-08-05T08:47:47.307Z,20.76
2022-08-05T08:50:23.069Z,20.96
2022-08-05T08:52:51.865Z,20.85
2022-08-05T08:56:01.811Z,20.52
2022-08-05T08:58:12.965Z,19.68
2022-08-05T09:00:42.558Z,19.90
2022-08-05T09:03:16.332Z,19.59
2022-08-05T09:06:07.859Z,19.86
2022-08-05T09:08:40.135Z,19.65
2022-08-05T09:11:08.939Z,19.72
2022-08-05T09:14:09.803Z,19.76
2022-08-05T09:16:32.049Z,19.65
2022-08-05T09:19:01.509Z,19.67
2022-08-05T09:22:23.519Z,19.71
2022-08-05T09:24:24.278Z,19.62
2022-08-05T09:26:53.782Z,19.11
2022-08-05T09:29:30.915Z,19.72
2022-08-05T09:32:41.514Z,19.67
2022-08-05T09:34:55.068Z,19.68
2022-08-05T09:38:18.484Z,19.37
2022-08-05T09:40:31.116Z,19.60
2022-08-05T09:43:01.193Z,19.75
2022-08-05T09:46:07.641Z,19.28
2022-08-05T09:48:30.671Z,19.72
2022-08-05T09:51:03.041Z,19.75
2022-08-05T09:53:53.929Z,19.84
2022-08-05T09:56:27.597Z,19.58
2022-08-05T09:59:00.643Z,19.45
2022-08-05T10:01:31.762Z,19.41
2022-08-05T10:04:10.088Z,19.37
2022-08-05T10:06:49.909Z,18.99
2022-08-05T10:09:28.103Z,19.19
2022-08-05T10:12:30.220Z,18.96
2022-08-05T10:15:16.314Z,18.87
2022-08-05T10:18:03.165Z,18.22
2022-08-05T10:20:33.330Z,17.57
2022-08-05T10:23:02.711Z,18.85
2022-08-05T10:25:31.746Z,18.55
2022-08-05T10:28:16.611Z,18.37
2022-08-05T10:32:49.411Z,18.49
2022-08-05T10:33:36.317Z,18.45
2022-08-05T10:36:05.849Z,17.97
2022-08-05T10:38:37.234Z,18.51
2022-08-05T10:41:14.786Z,18.49
2022-08-05T10:43:59.320Z,18.82
2022-08-05T10:46:45.031Z,18.92
2022-08-05T10:49:16.822Z,19.02
2022-08-05T10:51:53.083Z,19.01
2022-08-05T10:54:56.025Z,19.18
2022-08-05T10:57:31.792Z,18.87
2022-08-05T11:00:19.648Z,19.41
2022-08-05T11:03:23.529Z,19.42
2022-08-05T11:06:15.651Z,19.28
2022-08-05T11:09:16.750Z,19.25
2022-08-05T11:11:52.544Z,19.23
2022-08-05T11:14:49.322Z,19.41
2022-08-05T11:17:57.441Z,19.45
2022-08-05T11:20:52.394Z,19.43
2022-08-05T11:24:03.783Z,19.23
2022-08-05T11:26:28.584Z,19.50
2022-08-05T11:29:06.957Z,19.06
2022-08-05T11:31:56.561Z,19.42
2022-08-05T11:34:39.049Z,19.06
2022-08-05T11:38:29.050Z,18.95
2022-08-05T11:40:03.462Z,19.18
2022-08-05T11:42:38.052Z,19.30
2022-08-05T11:45:14.435Z,19.33
2022-08-05T11:47:58.911Z,19.11
2022-08-05T11:50:27.290Z,19.08
2022-08-05T11:52:58.216Z,18.91
2022-08-05T11:55:31.789Z,18.93
2022-08-05T11:58:10.481Z,18.83
2022-08-05T12:00:44.127Z,18.81
2022-08-05T12:03:29.650Z,18.93
2022-08-05T12:06:02.905Z,18.39
2022-08-05T12:08:32.897Z,19.16
2022-08-05T12:11:05.825Z,19.25
2022-08-05T12:13:49.240Z,19.40
2022-08-05T12:16:25.511Z,19.41
2022-08-05T12:18:55.918Z,19.49
2022-08-05T12:21:26.760Z,19.37
2022-08-05T12:24:04.239Z,18.86
2022-08-05T12:26:34.688Z,19.45
2022-08-05T12:29:03.533Z,19.18
2022-08-05T12:31:46.112Z,19.24
2022-08-05T12:34:21.323Z,19.26
2022-08-05T12:36:53.907Z,19.17
2022-08-05T12:39:23.735Z,19.28
2022-08-05T12:42:00.156Z,19.33
2022-08-05T12:44:33.704Z,19.38
2022-08-05T12:47:04.366Z,18.75
2022-08-05T12:50:04.404Z,19.44
2022-08-05T12:52:42.323Z,19.48
2022-08-05T12:55:25.089Z,19.67
2022-08-05T12:58:38.914Z,19.69
2022-08-05T13:02:02.061Z,19.82
2022-08-05T13:03:42.218Z,19.62
2022-08-05T13:06:17.610Z,19.51
2022-08-05T13:08:50.937Z,19.53
2022-08-05T13:11:57.933Z,19.74
2022-08-05T13:14:20.090Z,19.74
2022-08-05T13:16:50.514Z,19.58
2022-08-05T13:19:21.461Z,19.68
2022-08-05T13:21:52.558Z,19.81
2022-08-05T13:24:36.380Z,19.98
2022-08-05T13:27:20.930Z,19.16
2022-08-05T13:29:59.379Z,19.75
2022-08-05T13:32:42.188Z,19.46
2022-08-05T13:35:22.387Z,19.75
2022-08-05T13:38:04.914Z,20.25
2022-08-05T13:40:51.544Z,20.40
2022-08-05T13:43:22.030Z,20.35
2022-08-05T13:45:50.892Z,20.67
2022-08-05T13:48:58.419Z,20.87
2022-08-05T13:51:09.592Z,20.75
2022-08-05T13:53:47.992Z,20.47
2022-08-05T13:56:18.397Z,20.97
2022-08-05T13:58:53.480Z,20.61
2022-08-05T14:01:36.220Z,20.40
2022-08-05T14:04:43.138Z,20.51
2022-08-05T14:07:25.823Z,20.34
2022-08-05T14:10:13.236Z,20.40
2022-08-05T14:12:42.833Z,20.24
2022-08-05T14:16:04.559Z,20.45
2022-08-05T14:18:00.942Z,20.44
2022-08-05T14:20:29.729Z,20.66
2022-08-05T14:22:59.467Z,20.35
2022-08-05T14:25:30.104Z,20.89
2022-08-05T14:27:58.990Z,20.74
2022-08-05T14:30:28.326Z,20.96
2022-08-05T14:32:58.945Z,20.42
2022-08-05T14:35:37.226Z,21.14
2022-08-05T14:38:31.858Z,20.78
2022-08-05T14:41:05.635Z,20.79
2022-08-05T14:43:59.722Z,21.23
2022-08-05T14:46:28.547Z,21.40
2022-08-05T14:49:03.386Z,21.43
2022-08-05T14:51:35.935Z,21.29
2022-08-05T14:54:28.368Z,21.26
2022-08-05T14:56:56.898Z,21.36
2022-08-05T14:59:29.777Z,20.72
2022-08-05T15:02:14.704Z,21.45
2022-08-05T15:04:44.794Z,21.25
2022-08-05T15:08:08.612Z,21.38
2022-08-05T15:10:03.187Z,21.51
2022-08-05T15:12:51.320Z,21.56
2022-08-05T15:15:55.934Z,21.76
2022-08-05T15:18:09.735Z,21.95
2022-08-05T15:20:37.802Z,22.00
2022-08-05T15:23:06.539Z,22.03
2022-08-05T15:25:51.155Z,21.99
2022-08-05T15:28:27.040Z,22.02
2022-08-05T15:30:56.618Z,22.14
2022-08-05T15:34:05.346Z,21.73
2022-08-05T15:36:17.249Z,21.90
2022-08-05T15:40:58.547Z,21.82
2022-08-05T15:41:55.569Z,21.96
2022-08-05T15:44:27.619Z,21.81
2022-08-05T15:46:56.119Z,21.82
2022-08-05T15:49:47.977Z,21.42
2022-08-05T15:52:29.334Z,21.66
2022-08-05T15:55:01.303Z,21.61
2022-08-05T15:57:34.532Z,21.41
2022-08-05T16:00:03.950Z,21.71
2022-08-05T16:02:33.093Z,21.29
2022-08-05T16:05:01.495Z,21.87
2022-08-05T16:07:29.852Z,22.16
2022-08-05T16:09:57.943Z,22.32
2022-08-05T16:12:26.350Z,22.54
2022-08-05T16:14:56.688Z,22.13
2022-08-05T16:17:25.562Z,21.84
2022-08-05T16:20:11.213Z,21.87
2022-08-05T16:22:41.896Z,22.01
2022-08-05T16:25:10.373Z,22.05
2022-08-05T16:27:59.969Z,22.00
2022-08-05T16:30:31.051Z,22.16
2022-08-05T16:33:00.406Z,22.07
2022-08-05T16:35:32.588Z,21.99
2022-08-05T16:38:18.662Z,21.89
2022-08-05T16:40:59.613Z,21.71
2022-08-05T16:43:30.778Z,21.59
2022-08-05T16:46:04.915Z,21.55
2022-08-05T16:48:40.841Z,21.04
2022-08-05T16:51:10.845Z,21.41
2022-08-05T16:54:05.090Z,21.42
2022-08-05T16:56:30.741Z,21.42
2022-08-05T16:59:00.956Z,21.47
2022-08-05T17:01:53.692Z,21.38
2022-08-05T17:04:26.508Z,21.59
2022-08-05T17:07:00.193Z,21.78
2022-08-05T17:09:29.560Z,21.48
2022-08-05T17:11:59.790Z,21.86
2022-08-05T17:14:37.677Z,21.60
2022-08-05T17:17:09.471Z,21.55
2022-08-05T17:19:46.115Z,21.43
2022-08-05T17:22:24.366Z,20.93
2022-08-05T17:24:57.554Z,20.88
2022-08-05T17:27:33.479Z,21.25
2022-08-05T17:30:03.313Z,20.80
2022-08-05T17:32:34.678Z,21.02
2022-08-05T17:35:04.051Z,21.31
2022-08-05T17:37:40.320Z,21.14
2022-08-05T17:40:15.382Z,21.16
2022-08-05T17:42:51.006Z,21.08
2022-08-05T17:45:21.861Z,21.07
2022-08-05T17:47:55.482Z,21.08
2022-08-05T17:50:28.299Z,20.95
2022-08-05T17:53:00.139Z,20.99
2022-08-05T17:55:38.407Z,20.96
2022-08-05T17:58:11.143Z,20.88
2022-08-05T18:00:44.580Z,20.40
2022-08-05T18:06:12.215Z,20.55
2022-08-05T18:08:45.499Z,20.61
2022-08-05T18:11:23.240Z,20.53
2022-08-05T18:13:52.943Z,20.63
2022-08-05T18:16:21.386Z,20.38
2022-08-05T18:18:50.994Z,20.24
2022-08-05T18:21:22.868Z,19.69
2022-08-05T18:23:54.621Z,20.00
2022-08-05T18:26:27.702Z,20.03
2022-08-05T18:28:58.103Z,20.06
2022-08-05T18:31:35.223Z,19.89
2022-08-05T18:34:05.824Z,19.83
2022-08-05T18:36:36.050Z,19.76
2022-08-05T18:39:06.693Z,19.28
2022-08-05T18:41:56.163Z,19.61
2022-08-05T18:44:35.052Z,19.66
2022-08-05T18:47:15.692Z,19.58
2022-08-05T18:50:02.603Z,19.49
2022-08-05T18:52:35.697Z,19.37
2022-08-05T18:55:10.288Z,19.48
2022-08-05T18:57:43.149Z,19.04
2022-08-05T19:00:20.626Z,19.35
2022-08-05T19:02:49.257Z,19.06
2022-08-05T19:06:13.536Z,19.26
2022-08-05T19:08:13.503Z,19.11
2022-08-05T19:10:41.820Z,18.29
2022-08-05T19:13:12.413Z,18.97
2022-08-05T19:15:58.997Z,18.83
2022-08-05T19:18:31.557Z,18.76
2022-08-05T19:21:01.616Z,18.71
2022-08-05T19:24:05.217Z,18.83
2022-08-05T19:26:22.632Z,18.24
2022-08-05T19:28:51.099Z,18.68
2022-08-05T19:31:21.529Z,18.67
2022-08-05T19:33:56.392Z,18.61
2022-08-05T19:36:27.183Z,18.55
2022-08-05T19:39:00.866Z,18.35
2022-08-05T19:41:58.149Z,18.36
2022-08-05T19:44:18.826Z,18.24
2022-08-05T19:46:47.045Z,18.30
2022-08-05T19:49:17.056Z,18.05
2022-08-05T19:52:04.823Z,17.59
2022-08-05T19:54:35.091Z,17.97
2022-08-05T19:57:08.714Z,17.58
2022-08-05T20:00:00.575Z,17.96
2022-08-05T20:02:31.465Z,17.59
2022-08-05T20:05:00.149Z,17.34
2022-08-05T20:07:48.809Z,17.46
2022-08-05T20:10:22.112Z,17.33
2022-08-05T20:12:50.806Z,16.92
2022-08-05T20:15:48.663Z,17.20
2022-08-05T20:18:10.709Z,17.24
2022-08-05T20:21:00.067Z,17.07
2022-08-05T20:23:40.103Z,17.05
2022-08-05T20:26:20.379Z,16.70
2022-08-05T20:28:51.159Z,16.78
2022-08-05T20:31:28.381Z,16.75
2022-08-05T20:34:10.629Z,16.72
2022-08-05T20:36:39.064Z,16.67
2022-08-05T20:39:13.537Z,16.50
2022-08-05T20:41:45.247Z,16.40
2022-08-05T20:44:18.650Z,16.46
2022-08-05T20:46:57.206Z,15.55
2022-08-05T20:49:26.410Z,15.86
2022-08-05T20:51:54.903Z,16.20
2022-08-05T20:54:25.504Z,16.46
2022-08-05T20:57:14.436Z,16.23
2022-08-05T21:00:11.075Z,16.52
2022-08-05T21:02:31.407Z,16.30
2022-08-05T21:05:01.264Z,15.81
2022-08-05T21:07:50.501Z,15.83
2022-08-05T21:10:21.421Z,15.79
2022-08-05T21:13:09.068Z,16.03
2022-08-05T21:15:38.524Z,15.78
2022-08-05T21:18:06.724Z,15.70
2022-08-05T21:20:35.118Z,15.61
2022-08-05T21:23:03.782Z,15.63
2022-08-05T21:25:34.843Z,15.59
2022-08-05T21:28:04.023Z,15.08
2022-08-05T21:30:32.704Z,15.38
2022-08-05T21:33:01.705Z,15.44
2022-08-05T21:35:55.428Z,15.30
2022-08-05T21:38:20.246Z,15.19
2022-08-05T21:40:49.726Z,14.41
2022-08-05T21:43:24.808Z,14.82
2022-08-05T21:45:57.796Z,15.05
2022-08-05T21:48:29.367Z,15.01
2022-08-05T21:50:59.948Z,14.74
2022-08-05T21:53:28.230Z,14.73
2022-08-05T21:56:09.944Z,14.38
2022-08-05T21:58:48.237Z,14.84
2022-08-05T22:01:26.365Z,14.36
2022-08-05T22:03:54.593Z,14.35
2022-08-05T22:06:37.112Z,14.81
2022-08-05T22:09:13.248Z,14.54
2022-08-05T22:11:46.945Z,14.72
2022-08-05T22:14:33.536Z,14.36
2022-08-05T22:17:06.978Z,14.66
2022-08-05T22:20:02.848Z,14.62
2022-08-05T22:22:28.060Z,13.98
2022-08-05T22:25:21.206Z,14.78
2022-08-05T22:28:08.498Z,14.93
2022-08-05T22:30:44.001Z,14.46
2022-08-05T22:33:58.438Z,14.58
2022-08-05T22:36:10.479Z,14.58
2022-08-05T22:38:43.610Z,14.62
2022-08-05T22:41:16.776Z,14.49
2022-08-05T22:44:07.227Z,14.35
2022-08-05T22:46:39.875Z,14.03
2022-08-05T22:49:23.235Z,14.29
2022-08-05T22:52:04.288Z,14.14
2022-08-05T22:54:35.045Z,13.61
2022-08-05T22:57:03.504Z,13.99
2022-08-05T22:59:46.060Z,14.07
2022-08-05T23:02:29.272Z,14.12
2022-08-05T23:05:01.641Z,14.05
2022-08-05T23:07:44.074Z,13.95
2022-08-05T23:10:14.845Z,13.90
2022-08-05T23:12:43.064Z,13.33
2022-08-05T23:15:13.811Z,13.44
2022-08-05T23:18:00.849Z,13.62
2022-08-05T23:20:31.032Z,13.53
2022-08-05T23:22:59.165Z,13.39
2022-08-05T23:25:53.094Z,13.44
2022-08-05T23:28:17.376Z,13.50
2022-08-05T23:30:53.679Z,13.45
2022-08-05T23:34:02.678Z,13.50
2022-08-05T23:36:13.637Z,13.49
2022-08-05T23:38:43.769Z,13.43
2022-08-05T23:41:12.833Z,13.40
2022-08-05T23:44:04.579Z,13.61
2022-08-05T23:46:30.831Z,13.54
2022-08-05T23:49:00.746Z,13.03
2022-08-05T23:51:55.097Z,13.65
2022-08-05T23:54:25.065Z,13.27
2022-08-05T23:56:56.020Z,13.01
2022-08-05T23:59:37.648Z,13.49
